createdAt,value
2023-01-31T00:02:24.382Z,100611.50
2023-01-31T00:04:52.184Z,100608.00
2023-01-31T00:07:19.968Z,100615.97
2023-01-31T00:09:47.952Z,100616.84
2023-01-31T00:12:15.658Z,100620.44
2023-01-31T00:14:43.363Z,100615.16
2023-01-31T00:17:11.028Z,100616.06
2023-01-31T00:19:40.869Z,100621.34
2023-01-31T00:22:08.920Z,100616.97
2023-01-31T00:24:37.029Z,100618.84
2023-01-31T00:27:04.752Z,100617.13
2023-01-31T00:29:32.471Z,100616.25
2023-01-31T00:32:00.606Z,100608.44
2023-01-31T00:34:28.675Z,100605.94
2023-01-31T00:36:56.358Z,100621.16
2023-01-31T00:39:24.005Z,100626.75
2023-01-31T00:41:52.096Z,100627.84
2023-01-31T00:44:19.970Z,100628.84
2023-01-31T00:46:48.231Z,100628.19
2023-01-31T00:49:15.843Z,100624.06
2023-01-31T00:51:44.929Z,100620.00
2023-01-31T00:54:12.565Z,100619.22
2023-01-31T00:56:40.444Z,100619.13
2023-01-31T00:59:09.054Z,100623.50
2023-01-31T01:01:37.046Z,100616.28
2023-01-31T01:04:05.147Z,100613.56
2023-01-31T01:06:32.838Z,100596.91
2023-01-31T01:09:00.911Z,100609.09
2023-01-31T01:11:28.865Z,100615.16
2023-01-31T01:13:56.697Z,100612.34
2023-01-31T01:16:24.360Z,100597.31
2023-01-31T01:18:52.058Z,100606.03
2023-01-31T01:21:19.946Z,100615.59
2023-01-31T01:23:48.228Z,100608.50
2023-01-31T01:26:16.191Z,100613.72
2023-01-31T01:28:43.874Z,100617.16
2023-01-31T01:31:11.634Z,100614.50
2023-01-31T01:33:39.359Z,100606.53
2023-01-31T01:36:07.102Z,100606.53
2023-01-31T01:38:34.733Z,100615.28
2023-01-31T01:41:02.329Z,100600.31
2023-01-31T01:43:30.728Z,100596.75
2023-01-31T01:45:58.494Z,100591.47
2023-01-31T01:48:26.610Z,100597.63
2023-01-31T01:50:54.236Z,100605.44
2023-01-31T01:53:21.814Z,100607.13
2023-01-31T01:55:49.385Z,100609.72
2023-01-31T01:58:17.020Z,100619.34
2023-01-31T02:00:45.795Z,100616.72
2023-01-31T02:03:13.521Z,100609.72
2023-01-31T02:05:41.375Z,100610.88
2023-01-31T02:08:10.210Z,100599.81
2023-01-31T02:10:38.918Z,100606.31
2023-01-31T02:13:06.978Z,100613.78
2023-01-31T02:15:34.569Z,100607.88
2023-01-31T02:18:02.177Z,100607.94
2023-01-31T02:20:29.842Z,100602.66
2023-01-31T02:22:57.877Z,100608.88
2023-01-31T02:25:25.830Z,100618.63
2023-01-31T02:27:53.493Z,100627.53
2023-01-31T02:30:21.061Z,100635.38
2023-01-31T02:32:48.946Z,100637.88
2023-01-31T02:35:16.748Z,100644.72
2023-01-31T02:37:44.727Z,100648.06
2023-01-31T02:40:12.317Z,100644.44
2023-01-31T02:42:39.934Z,100646.94
2023-01-31T02:45:07.501Z,100642.47
2023-01-31T02:47:35.322Z,100643.31
2023-01-31T02:50:03.340Z,100653.81
2023-01-31T02:52:30.936Z,100642.31
2023-01-31T02:55:16.092Z,100641.38
2023-01-31T02:57:43.901Z,100650.16
2023-01-31T03:00:11.647Z,100644.03
2023-01-31T03:02:39.322Z,100646.66
2023-01-31T03:05:07.008Z,100630.84
2023-01-31T03:07:34.638Z,100622.13
2023-01-31T03:10:02.482Z,100624.00
2023-01-31T03:12:31.171Z,100627.69
2023-01-31T03:14:59.198Z,100625.19
2023-01-31T03:17:34.794Z,100613.84
2023-01-31T03:20:02.643Z,100617.41
2023-01-31T03:22:30.213Z,100617.50
2023-01-31T03:24:58.176Z,100615.84
2023-01-31T03:27:25.785Z,100623.78
2023-01-31T03:29:53.355Z,100608.88
2023-01-31T03:32:21.176Z,100601.06
2023-01-31T03:34:48.743Z,100608.16
2023-01-31T03:37:17.096Z,100596.72
2023-01-31T03:39:44.947Z,100589.69
2023-01-31T03:42:13.522Z,100585.19
2023-01-31T03:44:41.145Z,100576.41
2023-01-31T03:47:08.719Z,100577.34
2023-01-31T03:49:36.600Z,100585.47
2023-01-31T03:52:04.530Z,100577.59
2023-01-31T03:54:32.583Z,100582.25
2023-01-31T03:57:00.216Z,100581.47
2023-01-31T03:59:28.129Z,100569.19
2023-01-31T04:01:56.164Z,100568.34
2023-01-31T04:04:23.783Z,100579.75
2023-01-31T04:06:51.426Z,100570.94
2023-01-31T04:09:20.490Z,100570.78
2023-01-31T04:11:49.260Z,100564.56
2023-01-31T04:14:17.219Z,100562.72
2023-01-31T04:16:44.808Z,100545.13
2023-01-31T04:19:12.374Z,100548.59
2023-01-31T04:21:39.955Z,100558.25
2023-01-31T04:24:10.204Z,100542.34
2023-01-31T04:26:38.408Z,100537.97
2023-01-31T04:29:06.060Z,100550.34
2023-01-31T04:31:34.197Z,100554.81
2023-01-31T04:34:01.839Z,100553.09
2023-01-31T04:36:29.467Z,100554.03
2023-01-31T04:38:57.450Z,100553.97
2023-01-31T04:41:25.379Z,100558.25
2023-01-31T04:43:52.997Z,100552.81
2023-01-31T04:46:20.865Z,100552.66
2023-01-31T04:48:48.523Z,100539.41
2023-01-31T04:51:16.312Z,100540.41
2023-01-31T04:53:43.929Z,100523.75
2023-01-31T04:56:11.546Z,100527.31
2023-01-31T04:58:39.329Z,100526.28
2023-01-31T05:01:07.463Z,100526.28
2023-01-31T05:03:36.424Z,100521.00
2023-01-31T05:06:04.137Z,100516.75
2023-01-31T05:08:31.738Z,100523.03
2023-01-31T05:11:00.468Z,100517.75
2023-01-31T05:13:30.207Z,100520.38
2023-01-31T05:15:58.617Z,100512.59
2023-01-31T05:18:26.181Z,100521.59
2023-01-31T05:20:53.773Z,100513.75
2023-01-31T05:23:21.641Z,100507.75
2023-01-31T05:25:49.528Z,100501.78
2023-01-31T05:28:17.165Z,100502.75
2023-01-31T05:30:45.056Z,100497.50
2023-01-31T05:33:12.838Z,100493.94
2023-01-31T05:35:42.248Z,100485.94
2023-01-31T05:38:09.946Z,100482.47
2023-01-31T05:40:37.970Z,100472.72
2023-01-31T05:43:05.563Z,100482.38
2023-01-31T05:45:33.262Z,100472.66
2023-01-31T05:48:02.485Z,100482.97
2023-01-31T05:50:31.001Z,100480.94
2023-01-31T05:53:00.861Z,100485.09
2023-01-31T05:55:28.565Z,100484.03
2023-01-31T05:57:56.183Z,100478.63
2023-01-31T06:00:23.977Z,100488.94
2023-01-31T06:02:51.603Z,100474.72
2023-01-31T06:05:19.957Z,100474.59
2023-01-31T06:07:47.744Z,100474.44
2023-01-31T06:10:15.666Z,100481.34
2023-01-31T06:12:43.467Z,100471.56
2023-01-31T06:15:11.226Z,100453.91
2023-01-31T06:17:39.234Z,100449.47
2023-01-31T06:20:06.909Z,100459.09
2023-01-31T06:22:34.563Z,100449.41
2023-01-31T06:25:02.266Z,100442.41
2023-01-31T06:27:29.891Z,100440.56
2023-01-31T06:29:58.020Z,100454.63
2023-01-31T06:32:26.074Z,100452.75
2023-01-31T06:34:53.719Z,100450.09
2023-01-31T06:37:21.728Z,100456.22
2023-01-31T06:39:49.451Z,100446.31
2023-01-31T06:42:17.423Z,100456.69
2023-01-31T06:44:45.515Z,100462.78
2023-01-31T06:47:15.554Z,100450.34
2023-01-31T06:49:43.334Z,100449.41
2023-01-31T06:52:11.703Z,100455.56
2023-01-31T06:54:40.840Z,100452.91
2023-01-31T06:57:08.443Z,100448.47
2023-01-31T06:59:36.085Z,100437.84
2023-01-31T07:02:03.830Z,100443.13
2023-01-31T07:04:31.585Z,100443.06
2023-01-31T07:06:59.642Z,100461.44
2023-01-31T07:09:27.409Z,100461.38
2023-01-31T07:11:55.025Z,100471.78
2023-01-31T07:14:24.315Z,100467.28
2023-01-31T07:16:51.936Z,100478.56
2023-01-31T07:19:19.932Z,100473.13
2023-01-31T07:21:49.335Z,100464.13
2023-01-31T07:24:17.014Z,100467.66
2023-01-31T07:26:45.199Z,100459.69
2023-01-31T07:29:13.345Z,100461.25
2023-01-31T07:31:41.428Z,100469.94
2023-01-31T07:34:09.125Z,100467.22
2023-01-31T07:36:37.320Z,100464.47
2023-01-31T07:39:05.032Z,100461.78
2023-01-31T07:41:32.658Z,100473.22
2023-01-31T07:44:00.489Z,100452.84
2023-01-31T07:46:28.300Z,100439.56
2023-01-31T07:48:55.993Z,100450.03
2023-01-31T07:51:24.037Z,100437.63
2023-01-31T07:53:51.686Z,100453.31
2023-01-31T07:56:19.800Z,100446.16
2023-01-31T07:58:48.543Z,100447.72
2023-01-31T08:01:34.079Z,100449.25
2023-01-31T08:04:18.371Z,100445.59
2023-01-31T08:06:47.651Z,100449.88
2023-01-31T08:09:15.505Z,100448.97
2023-01-31T08:11:43.229Z,100446.25
2023-01-31T08:14:11.178Z,100450.66
2023-01-31T08:16:40.049Z,100430.41
2023-01-31T08:19:08.509Z,100439.16
2023-01-31T08:21:36.198Z,100425.94
2023-01-31T08:24:03.996Z,100424.09
2023-01-31T08:26:32.005Z,100423.16
2023-01-31T08:29:00.264Z,100416.06
2023-01-31T08:31:28.660Z,100404.66
2023-01-31T08:33:57.464Z,100409.97
2023-01-31T08:36:25.176Z,100406.44
2023-01-31T08:38:53.658Z,100415.25
2023-01-31T08:41:21.773Z,100396.81
2023-01-31T08:43:58.889Z,100387.13
2023-01-31T08:46:27.130Z,100386.06
2023-01-31T08:48:55.013Z,100367.50
2023-01-31T08:51:23.044Z,100372.63
2023-01-31T08:53:51.154Z,100383.03
2023-01-31T08:56:21.502Z,100376.81
2023-01-31T08:58:49.485Z,100379.28
2023-01-31T09:01:17.302Z,100382.78
2023-01-31T09:03:45.532Z,100388.31
2023-01-31T09:06:13.806Z,100394.16
2023-01-31T09:08:41.747Z,100406.38
2023-01-31T09:11:09.479Z,100397.56
2023-01-31T09:13:38.201Z,100412.31
2023-01-31T09:16:06.276Z,100402.22
2023-01-31T09:18:34.389Z,100404.41
2023-01-31T09:21:02.098Z,100410.81
2023-01-31T09:23:29.985Z,100397.09
2023-01-31T09:25:58.325Z,100406.00
2023-01-31T09:28:26.189Z,100402.59
2023-01-31T09:30:55.006Z,100382.50
2023-01-31T09:33:22.758Z,100379.09
2023-01-31T09:35:50.545Z,100371.25
2023-01-31T09:38:18.497Z,100366.91
2023-01-31T09:40:46.220Z,100376.59
2023-01-31T09:43:13.963Z,100366.13
2023-01-31T09:45:43.410Z,100367.91
2023-01-31T09:48:11.230Z,100374.97
2023-01-31T09:50:39.531Z,100375.03
2023-01-31T09:53:07.327Z,100367.13
2023-01-31T09:55:35.204Z,100360.16
2023-01-31T09:58:03.012Z,100377.81
2023-01-31T10:00:30.773Z,100372.53
2023-01-31T10:02:59.617Z,100374.28
2023-01-31T10:05:29.367Z,100375.97
2023-01-31T10:07:57.618Z,100371.41
2023-01-31T10:10:25.306Z,100354.53
2023-01-31T10:12:53.122Z,100352.69
2023-01-31T10:15:21.999Z,100348.94
2023-01-31T10:17:50.116Z,100347.00
2023-01-31T10:20:18.781Z,100350.44
2023-01-31T10:22:46.934Z,100342.53
2023-01-31T10:25:14.751Z,100332.75
2023-01-31T10:27:42.967Z,100329.88
2023-01-31T10:30:11.236Z,100322.72
2023-01-31T10:32:39.766Z,100308.50
2023-01-31T10:35:07.536Z,100311.06
2023-01-31T10:37:35.913Z,100296.94
2023-01-31T10:40:03.857Z,100302.22
2023-01-31T10:42:32.591Z,100301.22
2023-01-31T10:45:00.619Z,100295.06
2023-01-31T10:47:28.282Z,100296.78
2023-01-31T10:49:56.027Z,100284.34
2023-01-31T10:52:28.795Z,100291.34
2023-01-31T10:54:56.757Z,100283.50
2023-01-31T10:57:24.701Z,100284.50
2023-01-31T10:59:52.750Z,100274.97
2023-01-31T11:02:20.638Z,100277.53
2023-01-31T11:04:49.090Z,100266.09
2023-01-31T11:07:17.029Z,100247.63
2023-01-31T11:09:45.205Z,100247.56
2023-01-31T11:12:13.002Z,100249.44
2023-01-31T11:14:42.203Z,100245.09
2023-01-31T11:17:10.234Z,100239.00
2023-01-31T11:19:38.127Z,100235.47
2023-01-31T11:22:06.840Z,100242.44
2023-01-31T11:24:34.674Z,100242.50
2023-01-31T11:27:02.540Z,100237.16
2023-01-31T11:29:30.518Z,100230.00
2023-01-31T11:31:58.577Z,100229.00
2023-01-31T11:34:27.206Z,100216.50
2023-01-31T11:36:55.623Z,100215.56
2023-01-31T11:39:23.527Z,100226.09
2023-01-31T11:41:52.015Z,100222.53
2023-01-31T11:44:19.873Z,100220.56
2023-01-31T11:46:48.391Z,100223.03
2023-01-31T11:49:16.292Z,100214.88
2023-01-31T11:51:45.445Z,100201.44
2023-01-31T11:54:13.801Z,100196.59
2023-01-31T11:56:41.736Z,100194.44
2023-01-31T11:59:11.427Z,100184.50
2023-01-31T12:01:39.254Z,100188.31
2023-01-31T12:04:07.193Z,100194.03
2023-01-31T12:06:35.369Z,100180.41
2023-01-31T12:09:03.423Z,100193.16
2023-01-31T12:11:31.862Z,100192.97
2023-01-31T12:14:00.045Z,100191.00
2023-01-31T12:16:27.965Z,100194.34
2023-01-31T12:18:56.155Z,100179.94
2023-01-31T12:21:24.086Z,100176.84
2023-01-31T12:23:52.586Z,100176.63
2023-01-31T12:26:20.398Z,100176.56
2023-01-31T12:28:48.552Z,100175.72
2023-01-31T12:31:17.082Z,100178.38
2023-01-31T12:33:45.070Z,100170.44
2023-01-31T12:36:13.436Z,100164.09
2023-01-31T12:38:41.577Z,100155.13
2023-01-31T12:41:09.780Z,100154.97
2023-01-31T12:43:38.111Z,100141.56
2023-01-31T12:46:07.543Z,100149.22
2023-01-31T12:48:35.451Z,100144.88
2023-01-31T12:51:03.451Z,100142.22
2023-01-31T12:53:31.284Z,100134.28
2023-01-31T12:55:59.220Z,100137.00
2023-01-31T12:58:27.235Z,100144.78
2023-01-31T13:00:55.434Z,100154.59
2023-01-31T13:03:24.254Z,100141.47
2023-01-31T13:05:52.177Z,100156.41
2023-01-31T13:08:20.177Z,100152.88
2023-01-31T13:10:48.089Z,100146.75
2023-01-31T13:13:16.629Z,100139.66
2023-01-31T13:15:44.586Z,100152.06
2023-01-31T13:18:12.666Z,100146.84
2023-01-31T13:20:41.088Z,100150.50
2023-01-31T13:23:09.134Z,100158.72
2023-01-31T13:25:40.526Z,100150.88
2023-01-31T13:28:08.843Z,100156.16
2023-01-31T13:30:36.725Z,100157.97
2023-01-31T13:33:05.014Z,100157.22
2023-01-31T13:35:33.001Z,100151.25
2023-01-31T13:38:01.177Z,100167.41
2023-01-31T13:40:29.063Z,100155.34
2023-01-31T13:42:57.179Z,100161.78
2023-01-31T13:45:25.139Z,100162.88
2023-01-31T13:47:53.316Z,100167.34
2023-01-31T13:50:21.720Z,100155.16
2023-01-31T13:52:52.324Z,100146.34
2023-01-31T13:55:20.817Z,100158.72
2023-01-31T13:57:48.944Z,100147.38
2023-01-31T14:00:16.920Z,100144.72
2023-01-31T14:02:45.492Z,100144.66
2023-01-31T14:05:13.373Z,100149.94
2023-01-31T14:07:41.189Z,100144.66
2023-01-31T14:10:10.969Z,100146.34
2023-01-31T14:12:38.986Z,100140.13
2023-01-31T14:15:07.080Z,100148.91
2023-01-31T14:17:35.329Z,100134.66
2023-01-31T14:20:03.582Z,100139.88
2023-01-31T14:22:35.257Z,100126.66
2023-01-31T14:25:03.355Z,100133.66
2023-01-31T14:27:31.812Z,100127.41
2023-01-31T14:29:59.911Z,100129.94
2023-01-31T14:32:28.295Z,100129.88
2023-01-31T14:34:56.231Z,100127.22
2023-01-31T14:37:24.619Z,100136.84
2023-01-31T14:39:53.060Z,100132.44
2023-01-31T14:42:21.009Z,100132.44
2023-01-31T14:44:48.972Z,100125.25
2023-01-31T14:47:17.390Z,100135.81
2023-01-31T14:49:45.332Z,100138.31
2023-01-31T14:52:13.733Z,100136.41
2023-01-31T14:54:41.680Z,100143.41
2023-01-31T14:57:09.587Z,100134.53
2023-01-31T14:59:37.854Z,100135.41
2023-01-31T15:02:05.773Z,100138.88
2023-01-31T15:04:34.036Z,100135.28
2023-01-31T15:07:02.234Z,100132.63
2023-01-31T15:09:30.103Z,100136.91
2023-01-31T15:11:58.086Z,100136.91
2023-01-31T15:14:34.312Z,100150.03
2023-01-31T15:17:03.879Z,100156.28
2023-01-31T15:19:32.540Z,100165.91
2023-01-31T15:22:00.547Z,100162.31
2023-01-31T15:24:28.371Z,100170.16
2023-01-31T15:26:56.336Z,100173.63
2023-01-31T15:29:24.738Z,100167.41
2023-01-31T15:31:52.670Z,100169.03
2023-01-31T15:34:21.063Z,100180.47
2023-01-31T15:36:49.012Z,100161.00
2023-01-31T15:39:16.766Z,100180.28
2023-01-31T15:41:45.386Z,100184.63
2023-01-31T15:44:13.158Z,100182.75
2023-01-31T15:46:41.424Z,100183.44
2023-01-31T15:49:09.417Z,100190.41
2023-01-31T15:51:37.224Z,100190.22
2023-01-31T15:54:06.430Z,100186.56
2023-01-31T15:56:34.903Z,100187.31
2023-01-31T15:59:02.827Z,100167.84
2023-01-31T16:01:31.389Z,100171.28
2023-01-31T16:03:59.519Z,100187.97
2023-01-31T16:06:27.894Z,100197.59
2023-01-31T16:09:00.812Z,100190.53
2023-01-31T16:11:33.467Z,100193.09
2023-01-31T16:14:01.616Z,100190.47
2023-01-31T16:16:29.936Z,100198.28
2023-01-31T16:18:58.308Z,100192.03
2023-01-31T16:21:26.204Z,100198.94
2023-01-31T16:23:54.454Z,100191.00
2023-01-31T16:26:22.599Z,100210.41
2023-01-31T16:28:51.138Z,100221.75
2023-01-31T16:31:19.186Z,100218.16
2023-01-31T16:33:47.333Z,100216.44
2023-01-31T16:36:18.244Z,100211.16
2023-01-31T16:38:46.841Z,100191.75
2023-01-31T16:41:15.233Z,100208.50
2023-01-31T16:43:43.270Z,100231.38
2023-01-31T16:46:11.230Z,100213.72
2023-01-31T16:48:40.754Z,100209.25
2023-01-31T16:51:08.631Z,100210.97
2023-01-31T16:53:40.893Z,100204.75
2023-01-31T16:56:08.977Z,100207.19
2023-01-31T16:58:36.885Z,100207.13
2023-01-31T17:01:07.106Z,100211.47
2023-01-31T17:03:36.304Z,100218.25
2023-01-31T17:06:06.497Z,100229.50
2023-01-31T17:08:34.346Z,100234.44
2023-01-31T17:11:02.561Z,100217.44
2023-01-31T17:13:30.386Z,100223.13
2023-01-31T17:15:58.299Z,100220.09
2023-01-31T17:18:26.665Z,100226.91
2023-01-31T17:20:54.698Z,100224.84
2023-01-31T17:23:22.543Z,100226.47
2023-01-31T17:25:50.763Z,100224.56
2023-01-31T17:28:18.794Z,100227.94
2023-01-31T17:30:47.912Z,100233.16
2023-01-31T17:33:16.369Z,100218.03
2023-01-31T17:35:44.233Z,100233.72
2023-01-31T17:38:12.175Z,100230.16
2023-01-31T17:40:40.317Z,100225.50
2023-01-31T17:43:08.662Z,100218.41
2023-01-31T17:45:40.724Z,100211.41
2023-01-31T17:48:11.762Z,100204.50
2023-01-31T17:50:44.541Z,100216.91
2023-01-31T17:53:12.748Z,100211.69
2023-01-31T17:55:40.635Z,100209.13
2023-01-31T17:58:08.786Z,100212.94
2023-01-31T18:00:36.657Z,100213.00
2023-01-31T18:03:04.925Z,100224.34
2023-01-31T18:05:39.122Z,100214.63
2023-01-31T18:08:07.393Z,100209.50
2023-01-31T18:10:35.326Z,100191.06
2023-01-31T18:13:03.200Z,100192.94
2023-01-31T18:15:31.384Z,100187.75
2023-01-31T18:17:59.835Z,100197.41
2023-01-31T18:20:27.966Z,100211.41
2023-01-31T18:22:55.895Z,100206.84
2023-01-31T18:25:23.960Z,100202.34
2023-01-31T18:27:52.989Z,100197.88
2023-01-31T18:30:21.247Z,100189.75
2023-01-31T18:32:49.296Z,100193.22
2023-01-31T18:35:17.327Z,100214.34
2023-01-31T18:37:45.256Z,100212.94
2023-01-31T18:40:13.410Z,100219.16
2023-01-31T18:42:41.865Z,100210.06
2023-01-31T18:45:11.035Z,100206.00
2023-01-31T18:47:39.084Z,100201.94
2023-01-31T18:50:06.935Z,100204.75
2023-01-31T18:52:35.983Z,100198.78
2023-01-31T18:55:04.435Z,100206.84
2023-01-31T18:57:32.353Z,100209.56
2023-01-31T19:00:00.239Z,100219.31
2023-01-31T19:02:28.518Z,100228.16
2023-01-31T19:04:56.481Z,100231.78
2023-01-31T19:07:24.382Z,100243.31
2023-01-31T19:09:52.480Z,100247.84
2023-01-31T19:12:20.828Z,100256.53
2023-01-31T19:14:48.834Z,100258.44
2023-01-31T19:17:17.693Z,100260.13
2023-01-31T19:19:45.569Z,100268.94
2023-01-31T19:22:13.493Z,100268.53
2023-01-31T19:24:41.501Z,100254.28
2023-01-31T19:27:09.352Z,100262.13
2023-01-31T19:29:39.898Z,100270.16
2023-01-31T19:32:08.403Z,100258.06
2023-01-31T19:34:36.936Z,100257.56
2023-01-31T19:37:04.784Z,100249.16
2023-01-31T19:39:32.775Z,100254.63
2023-01-31T19:42:00.890Z,100254.88
2023-01-31T19:44:29.130Z,100250.03
2023-01-31T19:46:57.057Z,100261.72
2023-01-31T19:49:24.893Z,100266.44
2023-01-31T19:51:52.780Z,100263.97
2023-01-31T19:54:21.187Z,100269.63
2023-01-31T19:56:50.102Z,100276.78
2023-01-31T19:59:20.004Z,100265.25
2023-01-31T20:01:48.053Z,100278.47
2023-01-31T20:04:15.883Z,100272.34
2023-01-31T20:06:44.298Z,100259.22
2023-01-31T20:09:20.980Z,100257.59
2023-01-31T20:11:51.388Z,100268.28
2023-01-31T20:14:19.232Z,100266.66
2023-01-31T20:16:47.612Z,100267.69
2023-01-31T20:19:15.706Z,100276.69
2023-01-31T20:21:43.880Z,100275.13
2023-01-31T20:24:13.921Z,100272.47
2023-01-31T20:26:41.916Z,100284.81
2023-01-31T20:29:10.117Z,100261.72
2023-01-31T20:31:38.147Z,100257.19
2023-01-31T20:34:07.253Z,100257.19
2023-01-31T20:36:35.184Z,100254.63
2023-01-31T20:39:03.684Z,100251.22
2023-01-31T20:41:31.806Z,100260.00
2023-01-31T20:43:59.769Z,100253.84
2023-01-31T20:46:28.295Z,100255.81
2023-01-31T20:48:56.232Z,100256.19
2023-01-31T20:51:24.124Z,100253.69
2023-01-31T20:53:52.254Z,100255.66
2023-01-31T20:56:20.232Z,100267.25
2023-01-31T20:58:48.749Z,100258.63
2023-01-31T21:01:17.688Z,100259.69
2023-01-31T21:03:45.808Z,100263.34
2023-01-31T21:06:13.720Z,100265.06
2023-01-31T21:08:41.644Z,100264.19
2023-01-31T21:11:09.973Z,100259.75
2023-01-31T21:13:38.466Z,100255.50
2023-01-31T21:16:06.477Z,100259.91
2023-01-31T21:18:34.873Z,100261.81
2023-01-31T21:21:02.700Z,100253.13
2023-01-31T21:23:30.659Z,100255.84
2023-01-31T21:25:58.694Z,100247.16
2023-01-31T21:28:26.627Z,100252.63
2023-01-31T21:30:54.883Z,100242.88
2023-01-31T21:33:22.871Z,100238.47
2023-01-31T21:35:50.776Z,100240.16
2023-01-31T21:38:18.913Z,100237.59
2023-01-31T21:40:46.873Z,100241.16
2023-01-31T21:43:13.567Z,100230.66
2023-01-31T21:45:43.230Z,100227.31
2023-01-31T21:48:28.571Z,100232.63
2023-01-31T21:50:56.608Z,100241.47
2023-01-31T21:53:25.185Z,100227.31
2023-01-31T21:55:54.159Z,100237.91
2023-01-31T21:58:22.053Z,100232.53
2023-01-31T22:00:50.346Z,100232.47
2023-01-31T22:03:18.116Z,100229.91
2023-01-31T22:05:46.385Z,100229.91
2023-01-31T22:08:14.601Z,100225.47
2023-01-31T22:10:42.523Z,100222.91
2023-01-31T22:13:10.950Z,100217.69
2023-01-31T22:15:38.826Z,100220.53
2023-01-31T22:18:06.756Z,100224.09
2023-01-31T22:20:34.841Z,100221.34
2023-01-31T22:23:02.753Z,100222.41
2023-01-31T22:25:31.299Z,100221.53
2023-01-31T22:27:59.517Z,100225.88
2023-01-31T22:30:27.465Z,100227.00
2023-01-31T22:32:55.466Z,100228.03
2023-01-31T22:35:23.303Z,100229.03
2023-01-31T22:37:51.541Z,100225.47
2023-01-31T22:40:19.818Z,100214.91
2023-01-31T22:42:47.861Z,100212.31
2023-01-31T22:45:15.966Z,100205.28
2023-01-31T22:47:43.750Z,100205.19
2023-01-31T22:50:12.106Z,100192.91
2023-01-31T22:52:39.771Z,100203.47
2023-01-31T22:55:07.633Z,100195.66
2023-01-31T22:57:35.479Z,100200.25
2023-01-31T23:00:05.730Z,100194.97
2023-01-31T23:02:34.121Z,100193.94
2023-01-31T23:05:03.582Z,100184.97
2023-01-31T23:07:31.307Z,100190.03
2023-01-31T23:09:59.280Z,100183.69
2023-01-31T23:12:27.025Z,100189.66
2023-01-31T23:14:55.279Z,100186.75
2023-01-31T23:17:41.325Z,100187.53
2023-01-31T23:20:10.068Z,100175.28
2023-01-31T23:22:37.871Z,100172.78
2023-01-31T23:25:05.910Z,100169.41
2023-01-31T23:27:33.589Z,100175.63
2023-01-31T23:30:01.632Z,100167.69
2023-01-31T23:32:29.555Z,100160.72
2023-01-31T23:34:57.301Z,100164.19
2023-01-31T23:37:25.701Z,100163.25
2023-01-31T23:39:53.435Z,100173.56
2023-01-31T23:42:21.219Z,100154.91
2023-01-31T23:44:49.197Z,100155.72
2023-01-31T23:47:16.934Z,100159.19
2023-01-31T23:49:45.019Z,100162.59
2023-01-31T23:52:12.690Z,100165.06
2023-01-31T23:54:40.503Z,100159.50
2023-01-31T23:57:08.206Z,100158.41
2023-01-31T23:59:35.999Z,100162.66
